createdAt,value
2023-04-06T00:00:38.485Z,55.71
2023-04-06T00:03:07.037Z,55.21
2023-04-06T00:05:35.532Z,56.03
2023-04-06T00:08:03.852Z,56.18
2023-04-06T00:10:32.345Z,56.91
2023-04-06T00:13:02.356Z,57.32
2023-04-06T00:15:30.746Z,57.45
2023-04-06T00:17:59.084Z,57.51
2023-04-06T00:20:27.632Z,58.36
2023-04-06T00:22:56.334Z,57.60
2023-04-06T00:25:24.761Z,55.74
2023-04-06T00:27:53.090Z,55.96
2023-04-06T00:30:22.930Z,56.60
2023-04-06T00:32:51.307Z,56.27
2023-04-06T00:35:19.713Z,56.43
2023-04-06T00:37:49.184Z,57.09
2023-04-06T00:40:18.256Z,57.50
2023-04-06T00:42:46.608Z,58.02
2023-04-06T00:45:14.958Z,58.10
2023-04-06T00:47:44.801Z,57.64
2023-04-06T00:50:13.086Z,58.07
2023-04-06T00:52:41.366Z,57.95
2023-04-06T00:55:10.241Z,58.51
2023-04-06T00:57:38.758Z,58.86
2023-04-06T01:00:08.497Z,58.87
2023-04-06T01:02:36.830Z,58.72
2023-04-06T01:05:07.550Z,58.04
2023-04-06T01:07:35.888Z,58.34
2023-04-06T01:10:04.826Z,57.93
2023-04-06T01:12:33.211Z,57.91
2023-04-06T01:15:02.138Z,58.11
2023-04-06T01:17:30.747Z,57.83
2023-04-06T01:19:58.992Z,57.91
2023-04-06T01:22:28.750Z,58.51
2023-04-06T01:24:57.790Z,58.66
2023-04-06T01:27:27.554Z,59.33
2023-04-06T01:29:55.967Z,59.67
2023-04-06T01:32:24.533Z,59.66
2023-04-06T01:34:52.893Z,59.77
2023-04-06T01:37:21.223Z,59.68
2023-04-06T01:39:51.236Z,58.89
2023-04-06T01:42:19.500Z,60.33
2023-04-06T01:44:47.798Z,60.11
2023-04-06T01:47:16.252Z,60.28
2023-04-06T01:49:44.443Z,59.79
2023-04-06T01:52:12.774Z,59.03
2023-04-06T01:54:41.022Z,59.59
2023-04-06T01:57:10.724Z,59.75
2023-04-06T01:59:39.037Z,59.76
2023-04-06T02:02:07.316Z,59.52
2023-04-06T02:04:35.591Z,59.98
2023-04-06T02:07:03.956Z,59.89
2023-04-06T02:09:32.257Z,59.58
2023-04-06T02:12:01.687Z,60.28
2023-04-06T02:14:31.474Z,60.48
2023-04-06T02:16:59.737Z,60.45
2023-04-06T02:19:28.061Z,60.68
2023-04-06T02:21:56.853Z,60.77
2023-04-06T02:24:25.185Z,60.45
2023-04-06T02:26:53.389Z,61.28
2023-04-06T02:29:21.653Z,61.04
2023-04-06T02:31:51.385Z,60.97
2023-04-06T02:34:19.664Z,60.53
2023-04-06T02:36:48.232Z,60.58
2023-04-06T02:39:16.841Z,61.61
2023-04-06T02:41:45.166Z,61.66
2023-04-06T02:44:13.493Z,60.43
2023-04-06T02:46:41.800Z,61.32
2023-04-06T02:49:11.593Z,62.01
2023-04-06T02:51:39.906Z,62.01
2023-04-06T02:54:08.221Z,61.65
2023-04-06T02:56:36.594Z,62.08
2023-04-06T02:59:04.943Z,62.14
2023-04-06T03:01:33.367Z,62.33
2023-04-06T03:04:01.649Z,62.58
2023-04-06T03:06:31.477Z,62.72
2023-04-06T03:08:59.800Z,62.86
2023-04-06T03:11:28.691Z,63.21
2023-04-06T03:13:57.025Z,62.19
2023-04-06T03:16:25.691Z,62.95
2023-04-06T03:18:53.979Z,63.06
2023-04-06T03:21:22.282Z,63.27
2023-04-06T03:23:52.239Z,62.97
2023-04-06T03:26:20.666Z,62.35
2023-04-06T03:28:48.959Z,63.44
2023-04-06T03:31:17.232Z,62.97
2023-04-06T03:33:45.597Z,63.02
2023-04-06T03:36:13.933Z,63.12
2023-04-06T03:38:42.197Z,63.16
2023-04-06T03:41:12.066Z,62.70
2023-04-06T03:43:40.322Z,62.53
2023-04-06T03:46:08.556Z,63.13
2023-04-06T03:48:37.442Z,62.85
2023-04-06T03:51:06.049Z,62.92
2023-04-06T03:53:34.324Z,62.61
2023-04-06T03:56:04.769Z,62.56
2023-04-06T03:58:34.821Z,63.26
2023-04-06T04:01:03.089Z,64.29
2023-04-06T04:03:31.440Z,64.01
2023-04-06T04:05:59.864Z,63.99
2023-04-06T04:08:28.084Z,63.66
2023-04-06T04:10:56.363Z,62.90
2023-04-06T04:13:24.784Z,64.01
2023-04-06T04:15:54.484Z,63.47
2023-04-06T04:18:22.747Z,64.53
2023-04-06T04:20:50.946Z,64.79
2023-04-06T04:23:19.241Z,64.33
2023-04-06T04:25:47.576Z,64.08
2023-04-06T04:28:15.770Z,64.20
2023-04-06T04:30:44.145Z,65.27
2023-04-06T04:33:14.027Z,64.97
2023-04-06T04:35:42.405Z,63.79
2023-04-06T04:38:10.663Z,64.31
2023-04-06T04:40:39.082Z,64.80
2023-04-06T04:43:07.405Z,63.93
2023-04-06T04:45:35.848Z,63.64
2023-04-06T04:48:05.972Z,63.66
2023-04-06T04:50:35.844Z,63.54
2023-04-06T04:53:06.360Z,64.32
2023-04-06T04:55:34.692Z,64.02
2023-04-06T04:58:03.663Z,64.20
2023-04-06T05:00:31.977Z,64.82
2023-04-06T05:03:00.351Z,63.79
2023-04-06T05:05:28.730Z,63.39
2023-04-06T05:07:59.353Z,63.00
2023-04-06T05:10:27.661Z,62.21
2023-04-06T05:12:55.976Z,62.65
2023-04-06T05:15:24.220Z,62.40
2023-04-06T05:17:53.290Z,62.01
2023-04-06T05:20:21.626Z,60.88
2023-04-06T05:22:49.936Z,60.97
2023-04-06T05:25:19.752Z,61.28
2023-04-06T05:27:48.055Z,59.84
2023-04-06T05:30:17.072Z,59.91
2023-04-06T05:32:45.620Z,59.48
2023-04-06T05:35:13.919Z,59.17
2023-04-06T05:37:42.827Z,59.55
2023-04-06T05:40:11.717Z,59.97
2023-04-06T05:42:42.218Z,59.40
2023-04-06T05:45:17.769Z,58.87
2023-04-06T05:47:46.606Z,58.30
2023-04-06T05:50:16.394Z,57.89
2023-04-06T05:52:47.450Z,57.39
2023-04-06T05:55:15.675Z,56.84
2023-04-06T05:57:45.500Z,55.80
2023-04-06T06:00:15.653Z,55.51
2023-04-06T06:02:44.511Z,55.04
2023-04-06T06:05:12.923Z,54.91
2023-04-06T06:07:41.505Z,54.41
2023-04-06T06:10:14.808Z,54.50
2023-04-06T06:12:44.685Z,54.21
2023-04-06T06:15:13.894Z,54.72
2023-04-06T06:17:42.280Z,54.89
2023-04-06T06:20:11.453Z,54.12
2023-04-06T06:22:41.281Z,52.17
2023-04-06T06:25:18.762Z,53.05
2023-04-06T06:27:48.487Z,51.93
2023-04-06T06:30:17.175Z,50.57
2023-04-06T06:32:45.692Z,50.13
2023-04-06T06:35:14.007Z,50.53
2023-04-06T06:37:42.356Z,50.57
2023-04-06T06:40:14.271Z,49.60
2023-04-06T06:42:42.726Z,49.42
2023-04-06T06:45:12.918Z,51.90
2023-04-06T06:47:42.346Z,50.37
2023-04-06T06:50:11.128Z,50.18
2023-04-06T06:52:39.378Z,50.63
2023-04-06T06:55:08.445Z,49.98
2023-04-06T06:57:36.703Z,48.87
2023-04-06T07:00:06.454Z,48.58
2023-04-06T07:02:36.823Z,48.95
2023-04-06T07:05:15.995Z,50.22
2023-04-06T07:07:53.838Z,50.10
2023-04-06T07:10:22.292Z,49.21
2023-04-06T07:12:50.731Z,49.16
2023-04-06T07:15:18.999Z,48.90
2023-04-06T07:17:48.783Z,48.37
2023-04-06T07:20:17.471Z,48.12
2023-04-06T07:22:46.021Z,48.37
2023-04-06T07:25:14.275Z,47.02
2023-04-06T07:27:42.488Z,47.63
2023-04-06T07:30:11.240Z,45.63
2023-04-06T07:32:39.910Z,46.36
2023-04-06T07:35:09.892Z,46.02
2023-04-06T07:37:38.095Z,45.91
2023-04-06T07:40:07.260Z,44.75
2023-04-06T07:42:35.472Z,44.22
2023-04-06T07:45:03.846Z,43.52
2023-04-06T07:47:32.063Z,42.47
2023-04-06T07:50:00.329Z,42.61
2023-04-06T07:52:30.260Z,44.90
2023-04-06T07:54:58.516Z,43.04
2023-04-06T07:57:26.737Z,41.95
2023-04-06T07:59:55.028Z,42.34
2023-04-06T08:02:23.308Z,42.82
2023-04-06T08:04:51.755Z,42.47
2023-04-06T08:07:19.968Z,43.20
2023-04-06T08:09:49.666Z,42.92
2023-04-06T08:12:17.880Z,42.49
2023-04-06T08:14:46.126Z,42.81
2023-04-06T08:17:14.429Z,42.39
2023-04-06T08:19:44.852Z,41.95
2023-04-06T08:22:13.205Z,40.92
2023-04-06T08:24:41.656Z,41.70
2023-04-06T08:27:11.429Z,41.90
2023-04-06T08:29:39.725Z,40.58
2023-04-06T08:32:08.087Z,39.51
2023-04-06T08:34:36.474Z,39.66
2023-04-06T08:37:05.003Z,38.56
2023-04-06T08:39:34.929Z,38.36
2023-04-06T08:42:04.275Z,37.00
2023-04-06T08:44:34.286Z,35.73
2023-04-06T08:47:03.667Z,35.66
2023-04-06T08:49:32.128Z,35.23
2023-04-06T08:52:02.620Z,35.35
2023-04-06T08:54:30.856Z,35.32
2023-04-06T08:56:59.501Z,35.11
2023-04-06T08:59:28.343Z,35.52
2023-04-06T09:01:58.607Z,35.41
2023-04-06T09:04:28.811Z,34.90
2023-04-06T09:06:57.262Z,35.60
2023-04-06T09:09:26.263Z,35.08
2023-04-06T09:11:54.820Z,34.74
2023-04-06T09:14:37.224Z,33.54
2023-04-06T09:17:07.434Z,34.70
2023-04-06T09:19:35.754Z,33.96
2023-04-06T09:22:05.453Z,33.67
2023-04-06T09:24:43.092Z,34.44
2023-04-06T09:27:11.371Z,32.20
2023-04-06T09:29:39.295Z,32.96
2023-04-06T09:32:11.378Z,33.96
2023-04-06T09:34:39.490Z,34.29
2023-04-06T09:37:16.522Z,35.14
2023-04-06T09:39:44.421Z,33.91
2023-04-06T09:42:12.461Z,33.32
2023-04-06T09:44:40.484Z,33.75
2023-04-06T09:47:10.322Z,32.47
2023-04-06T09:49:38.274Z,31.54
2023-04-06T09:52:06.477Z,32.02
2023-04-06T09:54:34.738Z,33.30
2023-04-06T09:57:10.402Z,32.64
2023-04-06T09:59:46.670Z,32.14
2023-04-06T10:02:23.427Z,33.01
2023-04-06T10:04:58.506Z,32.65
2023-04-06T10:07:28.685Z,33.24
2023-04-06T10:09:58.260Z,32.52
2023-04-06T10:12:26.612Z,32.13
2023-04-06T10:14:55.789Z,33.56
2023-04-06T10:17:26.464Z,31.43
2023-04-06T10:19:56.048Z,31.99
2023-04-06T10:22:31.878Z,32.39
2023-04-06T10:25:00.682Z,31.50
2023-04-06T10:27:33.267Z,32.23
2023-04-06T10:30:05.160Z,31.80
2023-04-06T10:32:41.616Z,31.17
2023-04-06T10:35:14.162Z,31.65
2023-04-06T10:37:53.849Z,32.38
2023-04-06T10:40:24.460Z,33.82
2023-04-06T10:42:52.811Z,31.64
2023-04-06T10:45:28.148Z,30.86
2023-04-06T10:47:58.117Z,31.40
2023-04-06T10:50:26.520Z,31.72
2023-04-06T10:53:01.976Z,32.05
2023-04-06T10:55:31.752Z,29.74
2023-04-06T10:58:00.019Z,30.43
2023-04-06T11:00:39.434Z,30.77
2023-04-06T11:03:12.917Z,30.92
2023-04-06T11:05:41.324Z,30.51
2023-04-06T11:08:09.903Z,31.04
2023-04-06T11:10:38.133Z,30.48
2023-04-06T11:13:06.791Z,30.22
2023-04-06T11:15:38.958Z,31.02
2023-04-06T11:18:07.906Z,31.87
2023-04-06T11:20:37.824Z,29.99
2023-04-06T11:23:05.991Z,30.47
2023-04-06T11:25:34.241Z,28.86
2023-04-06T11:28:02.945Z,29.83
2023-04-06T11:30:31.647Z,29.70
2023-04-06T11:33:04.549Z,29.03
2023-04-06T11:35:35.110Z,29.33
2023-04-06T11:38:06.682Z,29.68
2023-04-06T11:40:34.937Z,28.55
2023-04-06T11:43:03.258Z,30.52
2023-04-06T11:45:42.255Z,28.95
2023-04-06T11:48:20.977Z,27.24
2023-04-06T11:50:50.190Z,27.41
2023-04-06T11:53:19.857Z,28.34
2023-04-06T11:55:48.390Z,29.07
2023-04-06T11:58:16.810Z,27.72
2023-04-06T12:00:47.628Z,27.66
2023-04-06T12:03:16.651Z,26.49
2023-04-06T12:05:46.322Z,27.55
2023-04-06T12:08:14.489Z,27.32
2023-04-06T12:10:44.112Z,27.69
2023-04-06T12:13:12.263Z,26.46
2023-04-06T12:15:40.499Z,26.90
2023-04-06T12:18:08.998Z,27.94
2023-04-06T12:20:37.294Z,26.21
2023-04-06T12:23:05.481Z,26.14
2023-04-06T12:25:33.739Z,25.75
2023-04-06T12:28:03.496Z,26.23
2023-04-06T12:30:32.335Z,25.29
2023-04-06T12:33:00.706Z,26.20
2023-04-06T12:35:29.069Z,26.17
2023-04-06T12:37:57.245Z,26.13
2023-04-06T12:40:25.511Z,25.50
2023-04-06T12:42:53.728Z,25.79
2023-04-06T12:45:23.557Z,25.25
2023-04-06T12:47:52.925Z,24.90
2023-04-06T12:50:21.261Z,24.10
2023-04-06T12:52:49.811Z,24.22
2023-04-06T12:55:18.221Z,24.40
2023-04-06T12:57:47.764Z,25.06
2023-04-06T13:00:17.359Z,25.34
2023-04-06T13:02:48.384Z,24.10
2023-04-06T13:05:19.699Z,24.14
2023-04-06T13:07:48.861Z,24.06
2023-04-06T13:10:17.301Z,24.42
2023-04-06T13:12:45.256Z,23.96
2023-04-06T13:15:13.619Z,24.17
2023-04-06T13:17:41.585Z,23.73
2023-04-06T13:20:12.235Z,24.31
2023-04-06T13:22:40.629Z,22.94
2023-04-06T13:25:09.590Z,22.89
2023-04-06T13:27:38.020Z,22.44
2023-04-06T13:30:07.518Z,22.67
2023-04-06T13:32:36.353Z,21.94
2023-04-06T13:35:04.838Z,21.88
2023-04-06T13:37:34.693Z,21.50
2023-04-06T13:40:04.485Z,21.89
2023-04-06T13:42:33.530Z,21.93
2023-04-06T13:45:01.919Z,21.81
2023-04-06T13:47:30.138Z,21.63
2023-04-06T13:49:58.449Z,21.49
2023-04-06T13:52:26.682Z,21.75
2023-04-06T13:54:56.423Z,21.55
2023-04-06T13:57:24.598Z,21.72
2023-04-06T13:59:52.730Z,21.18
2023-04-06T14:02:21.405Z,21.37
2023-04-06T14:04:49.582Z,21.77
2023-04-06T14:07:17.727Z,21.39
2023-04-06T14:09:45.961Z,21.47
2023-04-06T14:12:15.449Z,20.71
2023-04-06T14:14:43.642Z,20.24
2023-04-06T14:17:11.810Z,20.58
2023-04-06T14:19:40.094Z,20.54
2023-04-06T14:22:09.475Z,20.97
2023-04-06T14:24:37.996Z,20.20
2023-04-06T14:27:06.174Z,21.03
2023-04-06T14:29:36.828Z,20.17
2023-04-06T14:32:05.410Z,19.85
2023-04-06T14:34:33.638Z,19.91
2023-04-06T14:37:01.768Z,19.96
2023-04-06T14:39:29.930Z,19.83
2023-04-06T14:41:58.129Z,19.11
2023-04-06T14:44:26.385Z,19.09
2023-04-06T14:46:56.064Z,19.25
2023-04-06T14:49:24.256Z,18.47
2023-04-06T14:51:52.872Z,18.93
2023-04-06T14:54:21.177Z,18.87
2023-04-06T14:56:49.386Z,17.42
2023-04-06T14:59:17.496Z,17.02
2023-04-06T15:01:45.864Z,15.32
2023-04-06T15:04:15.707Z,14.84
2023-04-06T15:06:44.136Z,14.87
2023-04-06T15:09:12.353Z,14.57
2023-04-06T15:11:40.558Z,14.35
2023-04-06T15:14:08.876Z,13.19
2023-04-06T15:16:37.126Z,13.77
2023-04-06T15:19:05.293Z,13.10
2023-04-06T15:21:34.880Z,12.95
2023-04-06T15:24:03.306Z,12.89
2023-04-06T15:26:31.441Z,12.81
2023-04-06T15:28:59.615Z,12.68
2023-04-06T15:31:36.855Z,12.01
2023-04-06T15:34:09.047Z,12.24
2023-04-06T15:36:39.024Z,11.79
2023-04-06T15:39:10.116Z,11.86
2023-04-06T15:41:38.638Z,12.29
2023-04-06T15:44:06.944Z,11.74
2023-04-06T15:46:36.695Z,12.06
2023-04-06T15:49:05.260Z,12.67
2023-04-06T15:51:33.661Z,13.38
2023-04-06T15:54:03.317Z,14.11
2023-04-06T15:56:31.647Z,13.93
2023-04-06T15:59:00.133Z,13.45
2023-04-06T16:01:28.369Z,13.20
2023-04-06T16:03:57.667Z,12.61
2023-04-06T16:06:27.498Z,12.62
2023-04-06T16:08:55.827Z,13.21
2023-04-06T16:11:26.307Z,13.40
2023-04-06T16:13:55.437Z,13.70
2023-04-06T16:16:24.848Z,13.28
2023-04-06T16:18:53.072Z,13.40
2023-04-06T16:21:21.313Z,14.01
2023-04-06T16:23:49.463Z,15.40
2023-04-06T16:26:19.144Z,16.90
2023-04-06T16:28:49.526Z,18.41
2023-04-06T16:31:22.303Z,19.69
2023-04-06T16:33:51.402Z,20.80
2023-04-06T16:36:24.162Z,21.28
2023-04-06T16:38:52.735Z,21.88
2023-04-06T16:41:21.158Z,22.56
2023-04-06T16:43:50.750Z,23.17
2023-04-06T16:46:18.980Z,23.38
2023-04-06T16:48:47.189Z,23.48
2023-04-06T16:51:16.102Z,23.81
2023-04-06T16:53:44.432Z,24.27
2023-04-06T16:56:12.751Z,24.71
2023-04-06T16:58:40.990Z,24.54
2023-04-06T17:01:18.594Z,25.14
2023-04-06T17:03:47.541Z,25.19
2023-04-06T17:06:16.166Z,25.49
2023-04-06T17:08:44.849Z,25.70
2023-04-06T17:11:15.309Z,25.81
2023-04-06T17:13:44.955Z,26.07
2023-04-06T17:16:14.572Z,25.70
2023-04-06T17:18:42.798Z,26.44
2023-04-06T17:21:14.429Z,26.61
2023-04-06T17:23:42.798Z,26.69
2023-04-06T17:26:11.017Z,26.72
2023-04-06T17:28:39.381Z,26.66
2023-04-06T17:31:10.635Z,27.17
2023-04-06T17:33:40.943Z,27.31
2023-04-06T17:36:12.093Z,27.82
2023-04-06T17:38:44.404Z,27.66
2023-04-06T17:41:13.562Z,28.06
2023-04-06T17:43:42.222Z,27.79
2023-04-06T17:46:10.776Z,28.44
2023-04-06T17:48:40.744Z,28.24
2023-04-06T17:51:08.998Z,28.49
2023-04-06T17:53:37.430Z,28.77
2023-04-06T17:56:06.247Z,28.59
2023-04-06T17:58:35.479Z,29.01
2023-04-06T18:01:08.449Z,28.71
2023-04-06T18:03:36.766Z,29.01
2023-04-06T18:06:13.623Z,29.52
2023-04-06T18:08:42.903Z,29.73
2023-04-06T18:11:17.213Z,29.85
2023-04-06T18:13:45.525Z,29.96
2023-04-06T18:16:13.956Z,30.17
2023-04-06T18:18:42.212Z,30.10
2023-04-06T18:21:12.496Z,30.28
2023-04-06T18:23:40.719Z,30.40
2023-04-06T18:26:15.696Z,30.83
2023-04-06T18:28:44.261Z,30.48
2023-04-06T18:31:12.529Z,31.28
2023-04-06T18:33:40.983Z,31.62
2023-04-06T18:36:09.932Z,31.79
2023-04-06T18:38:43.059Z,31.86
2023-04-06T18:41:11.282Z,31.78
2023-04-06T18:43:40.671Z,31.88
2023-04-06T18:46:12.700Z,31.88
2023-04-06T18:48:40.942Z,32.92
2023-04-06T18:51:09.926Z,33.09
2023-04-06T18:53:40.121Z,33.15
2023-04-06T18:56:16.026Z,33.35
2023-04-06T18:58:44.961Z,33.81
2023-04-06T19:01:21.715Z,34.64
2023-04-06T19:03:50.833Z,34.51
2023-04-06T19:06:19.359Z,35.61
2023-04-06T19:08:49.333Z,35.17
2023-04-06T19:11:17.940Z,34.97
2023-04-06T19:13:53.837Z,35.41
2023-04-06T19:16:22.133Z,35.72
2023-04-06T19:18:50.551Z,35.77
2023-04-06T19:21:19.313Z,35.83
2023-04-06T19:23:51.160Z,36.54
2023-04-06T19:26:24.097Z,36.60
2023-04-06T19:28:52.352Z,37.64
2023-04-06T19:31:21.569Z,37.67
2023-04-06T19:33:49.867Z,38.95
2023-04-06T19:36:18.233Z,39.09
2023-04-06T19:38:49.433Z,39.50
2023-04-06T19:41:17.586Z,39.80
2023-04-06T19:43:45.869Z,40.66
2023-04-06T19:46:15.553Z,40.51
2023-04-06T19:48:43.714Z,40.28
2023-04-06T19:51:11.841Z,40.43
2023-04-06T19:53:40.068Z,42.16
2023-04-06T19:56:10.284Z,41.83
2023-04-06T19:58:39.363Z,41.26
2023-04-06T20:01:07.582Z,41.97
2023-04-06T20:03:36.589Z,42.07
2023-04-06T20:06:05.022Z,42.08
2023-04-06T20:08:33.250Z,43.12
2023-04-06T20:11:05.861Z,42.76
2023-04-06T20:13:36.213Z,42.88
2023-04-06T20:16:04.831Z,43.27
2023-04-06T20:18:33.151Z,42.19
2023-04-06T20:21:01.605Z,43.57
2023-04-06T20:23:30.176Z,44.19
2023-04-06T20:25:59.422Z,44.08
2023-04-06T20:28:27.677Z,43.69
2023-04-06T20:30:57.457Z,44.12
2023-04-06T20:33:25.975Z,43.84
2023-04-06T20:36:01.374Z,44.91
2023-04-06T20:38:33.701Z,45.08
2023-04-06T20:41:02.449Z,44.71
2023-04-06T20:43:31.965Z,44.45
2023-04-06T20:46:02.785Z,44.20
2023-04-06T20:48:33.469Z,45.48
2023-04-06T20:51:03.203Z,44.87
2023-04-06T20:53:31.890Z,44.59
2023-04-06T20:56:02.263Z,44.85
2023-04-06T20:58:30.567Z,45.27
2023-04-06T21:00:58.761Z,44.46
2023-04-06T21:03:28.951Z,45.88
2023-04-06T21:05:58.497Z,45.73
2023-04-06T21:08:26.685Z,45.31
2023-04-06T21:10:54.895Z,44.59
2023-04-06T21:13:23.256Z,45.15
2023-04-06T21:15:51.792Z,45.22
2023-04-06T21:18:20.233Z,45.58
2023-04-06T21:20:50.117Z,45.74
2023-04-06T21:23:18.447Z,45.92
2023-04-06T21:25:46.602Z,45.93
2023-04-06T21:28:14.775Z,45.80
2023-04-06T21:30:43.525Z,46.07
2023-04-06T21:33:11.993Z,45.46
2023-04-06T21:35:40.816Z,46.01
2023-04-06T21:38:10.799Z,45.96
2023-04-06T21:40:39.072Z,47.70
2023-04-06T21:43:07.472Z,47.37
2023-04-06T21:45:35.973Z,47.73
2023-04-06T21:48:04.192Z,48.07
2023-04-06T21:50:32.534Z,47.94
2023-04-06T21:53:00.700Z,47.65
2023-04-06T21:55:30.289Z,48.13
2023-04-06T21:57:58.426Z,48.76
2023-04-06T22:00:26.700Z,48.81
2023-04-06T22:02:55.079Z,49.48
2023-04-06T22:05:23.411Z,48.82
2023-04-06T22:07:52.333Z,48.87
2023-04-06T22:10:20.678Z,48.50
2023-04-06T22:12:51.425Z,49.11
2023-04-06T22:15:19.792Z,48.35
2023-04-06T22:17:48.211Z,48.52
2023-04-06T22:20:16.957Z,48.57
2023-04-06T22:22:47.922Z,48.83
2023-04-06T22:25:16.174Z,48.87
2023-04-06T22:27:44.333Z,48.55
2023-04-06T22:30:14.172Z,49.42
2023-04-06T22:32:42.375Z,48.58
2023-04-06T22:35:11.243Z,49.47
2023-04-06T22:37:43.295Z,50.40
2023-04-06T22:40:12.445Z,49.14
2023-04-06T22:42:40.704Z,49.67
2023-04-06T22:45:09.810Z,49.65
2023-04-06T22:47:39.535Z,49.86
2023-04-06T22:50:09.611Z,50.00
2023-04-06T22:55:06.517Z,50.71
2023-04-06T22:57:34.677Z,51.21
2023-04-06T23:00:05.642Z,50.49
2023-04-06T23:02:34.079Z,50.59
2023-04-06T23:05:03.808Z,50.34
2023-04-06T23:07:32.902Z,50.21
2023-04-06T23:10:01.241Z,50.02
2023-04-06T23:12:29.408Z,50.80
2023-04-06T23:14:57.657Z,51.20
2023-04-06T23:17:26.045Z,52.90
2023-04-06T23:19:54.488Z,51.67
2023-04-06T23:22:24.066Z,51.44
2023-04-06T23:24:52.165Z,52.89
2023-04-06T23:27:20.307Z,54.17
2023-04-06T23:29:48.412Z,53.48
2023-04-06T23:32:16.763Z,53.55
2023-04-06T23:34:44.962Z,53.78
2023-04-06T23:37:13.202Z,53.68
2023-04-06T23:39:42.960Z,53.77
2023-04-06T23:42:11.249Z,54.50
2023-04-06T23:44:39.347Z,54.33
2023-04-06T23:47:07.572Z,54.13
2023-04-06T23:49:35.965Z,53.57
2023-04-06T23:52:04.133Z,53.78
2023-04-06T23:54:32.302Z,53.53
2023-04-06T23:57:02.149Z,53.77
2023-04-06T23:59:30.277Z,53.98
